Time;durP1;ratioP1;P1;durP2;ratioP2;P2;SDS_P1;SDS_P2;PMS_P1;PMS_P2;Temp;Humidity;BMP_temperature;BMP_pressure;BME280_temperature;BME280_humidity;BME280_pressure;Samples;Min_cycle;Max_cycle;Signal;HPM_P1;HPM_P2
2023/07/07 00:07:40;;;;;;;16.60;12.52;;;;;;;;;;5235457;23;20056;-85
2023/07/07 00:10:26;;;;;;;13.93;11.60;;;;;;;;;;4896384;29;20048;-84
2023/07/07 00:13:15;;;;;;;19.95;12.88;;;;;;;;;;4896599;29;20045;-84
2023/07/07 00:16:01;;;;;;;17.40;13.00;;;;;;;;;;4884147;29;20391;-85
2023/07/07 00:18:50;;;;;;;19.42;13.45;;;;;;;;;;4899215;29;20053;-86
2023/07/07 00:21:38;;;;;;;18.92;13.13;;;;;;;;;;4889720;29;20041;-87
2023/07/07 00:24:49;;;;;;;19.33;13.68;;;;;;;;;;4907081;29;20061;-85
2023/07/07 00:27:39;;;;;;;18.65;13.00;;;;;;;;;;4889686;29;20045;-84
2023/07/07 00:30:33;;;;;;;16.77;12.82;;;;;;;;;;4904746;29;20053;-85
2023/07/07 00:33:18;;;;;;;18.40;13.35;;;;;;;;;;4902400;29;20045;-85
2023/07/07 00:36:20;;;;;;;20.17;14.07;;;;;;;;;;4902862;29;20053;-86
2023/07/07 00:39:06;;;;;;;19.50;12.98;;;;;;;;;;4901473;29;20049;-85
2023/07/07 00:41:54;;;;;;;18.25;12.48;;;;;;;;;;4893769;29;20041;-87
2023/07/07 00:45:28;;;;;;;18.55;12.98;;;;;;;;;;4882691;29;20487;-85
2023/07/07 00:48:53;;;;;;;19.20;12.43;;;;;;;;;;4888551;29;20049;-86
2023/07/07 00:52:01;;;;;;;18.67;12.68;;;;;;;;;;4899323;29;20056;-86
2023/07/07 00:55:01;;;;;;;20.85;12.50;;;;;;;;;;4900214;29;20044;-86
2023/07/07 00:57:47;;;;;;;17.75;13.18;;;;;;;;;;4900597;29;20048;-87
2023/07/07 01:00:39;;;;;;;17.27;13.35;;;;;;;;;;4894081;29;20045;-86
2023/07/07 01:03:44;;;;;;;20.17;13.13;;;;;;;;;;4900240;29;20048;-86
2023/07/07 01:07:16;;;;;;;17.98;13.32;;;;;;;;;;4902150;29;20041;-88
2023/07/07 01:10:21;;;;;;;18.80;12.50;;;;;;;;;;4868267;29;20496;-88
2023/07/07 01:13:37;;;;;;;;;;;;;;;;;;;;;
2023/07/07 02:15:07;;;;;;;16.80;11.70;;;;;;;;;;5923010;23;21361;-82
2023/07/07 02:19:17;;;;;;;16.38;12.30;;;;;;;;;;4890780;29;20052;-84
2023/07/07 03:12:50;;;;;;;20.13;11.27;;;;;;;;;;5612341;23;20442;-87
2023/07/07 03:15:41;;;;;;;15.63;11.30;;;;;;;;;;4850917;29;20404;-83
2023/07/07 03:18:33;;;;;;;17.08;11.43;;;;;;;;;;4872057;29;20065;-87
2023/07/07 03:21:22;;;;;;;16.75;10.90;;;;;;;;;;4857672;29;20411;-86
2023/07/07 03:24:14;;;;;;;14.93;10.90;;;;;;;;;;4870516;29;20049;-86
2023/07/07 03:27:02;;;;;;;17.25;11.63;;;;;;;;;;4870588;29;20480;-86
2023/07/07 03:29:53;;;;;;;16.00;11.80;;;;;;;;;;4869895;29;20500;-86
2023/07/07 03:32:40;;;;;;;16.08;11.77;;;;;;;;;;4869846;29;20053;-87
2023/07/07 03:35:26;;;;;;;19.27;12.30;;;;;;;;;;4864332;29;20408;-87
2023/07/07 03:38:14;;;;;;;15.48;11.38;;;;;;;;;;4864396;29;20038;-85
2023/07/07 03:41:00;;;;;;;15.50;11.15;;;;;;;;;;4869458;29;20424;-86
2023/07/07 03:43:53;;;;;;;18.30;11.98;;;;;;;;;;4857338;29;20053;-85
2023/07/07 03:46:39;;;;;;;13.45;11.07;;;;;;;;;;4869681;29;20045;-86
2023/07/07 03:49:26;;;;;;;23.45;10.68;;;;;;;;;;4869716;29;20049;-87
2023/07/07 03:52:12;;;;;;;18.58;11.07;;;;;;;;;;4869246;29;20414;-86
2023/07/07 03:54:58;;;;;;;19.33;11.55;;;;;;;;;;4868443;29;20046;-86
2023/07/07 03:57:44;;;;;;;14.32;11.30;;;;;;;;;;4868097;29;20053;-85
2023/07/07 04:00:29;;;;;;;12.43;10.18;;;;;;;;;;4869390;29;20049;-86
2023/07/07 04:03:16;;;;;;;14.85;10.40;;;;;;;;;;4868829;29;20503;-86
2023/07/07 04:06:02;;;;;;;13.32;10.48;;;;;;;;;;4868358;29;20053;-86
2023/07/07 04:08:48;;;;;;;19.52;9.82;;;;;;;;;;4869429;29;20045;-86
2023/07/07 04:11:33;;;;;;;12.15;10.60;;;;;;;;;;4869930;29;20046;-86
2023/07/07 04:14:19;;;;;;;15.85;10.27;;;;;;;;;;4899193;29;20061;-84
2023/07/07 04:17:05;;;;;;;14.93;10.25;;;;;;;;;;4868132;29;20046;-85
2023/07/07 04:19:50;;;;;;;16.80;9.88;;;;;;;;;;4868676;29;20053;-85
2023/07/07 04:22:36;;;;;;;14.77;10.32;;;;;;;;;;4868845;29;20046;-86
2023/07/07 04:25:22;;;;;;;15.45;10.50;;;;;;;;;;4868390;29;20049;-86
2023/07/07 04:28:07;;;;;;;16.65;10.55;;;;;;;;;;4868428;29;20065;-86
2023/07/07 04:30:57;;;;;;;16.90;10.65;;;;;;;;;;4863637;29;20042;-86
2023/07/07 04:33:42;;;;;;;21.33;12.05;;;;;;;;;;4863535;29;20050;-86
2023/07/07 04:36:28;;;;;;;17.23;12.60;;;;;;;;;;4863666;29;20049;-86
2023/07/07 04:39:13;;;;;;;17.40;12.30;;;;;;;;;;4863696;29;20492;-87
2023/07/07 04:41:59;;;;;;;16.05;12.13;;;;;;;;;;4864790;29;20053;-84
2023/07/07 04:44:45;;;;;;;14.43;11.73;;;;;;;;;;4881277;29;20037;-86
2023/07/07 04:47:30;;;;;;;15.20;11.63;;;;;;;;;;4887247;29;20034;-86
2023/07/07 04:50:16;;;;;;;13.40;11.15;;;;;;;;;;4884037;29;20495;-88
2023/07/07 04:53:01;;;;;;;15.30;10.05;;;;;;;;;;4875743;29;20042;-87
2023/07/07 04:55:47;;;;;;;12.30;9.35;;;;;;;;;;4868253;29;20050;-87
2023/07/07 04:58:33;;;;;;;11.50;9.05;;;;;;;;;;4875264;29;20488;-90
2023/07/07 05:01:22;;;;;;;13.60;8.55;;;;;;;;;;4863432;29;20045;-90
2023/07/07 05:04:08;;;;;;;14.32;9.77;;;;;;;;;;4863000;29;20045;-87
2023/07/07 05:06:53;;;;;;;13.80;9.52;;;;;;;;;;4862498;29;20053;-87
2023/07/07 05:09:39;;;;;;;12.25;8.25;;;;;;;;;;4854252;29;20050;-89
2023/07/07 05:12:24;;;;;;;18.08;8.85;;;;;;;;;;4867465;29;20072;-88
2023/07/07 05:15:10;;;;;;;11.63;8.60;;;;;;;;;;4861516;29;20408;-90
2023/07/07 05:17:56;;;;;;;15.25;8.13;;;;;;;;;;4867679;29;20049;-89
2023/07/07 05:20:45;;;;;;;11.45;7.88;;;;;;;;;;4862074;29;20057;-89
2023/07/07 05:23:31;;;;;;;11.52;8.00;;;;;;;;;;4866962;29;20046;-88
2023/07/07 05:26:16;;;;;;;14.07;8.77;;;;;;;;;;4862271;29;20054;-88
2023/07/07 05:29:04;;;;;;;9.80;8.05;;;;;;;;;;4867484;29;20045;-87
2023/07/07 05:31:49;;;;;;;10.45;8.10;;;;;;;;;;4860830;29;20057;-88
2023/07/07 05:34:35;;;;;;;14.70;8.63;;;;;;;;;;4856700;29;20049;-88
2023/07/07 05:37:21;;;;;;;9.95;7.70;;;;;;;;;;4867775;29;20041;-90
2023/07/07 05:40:08;;;;;;;10.63;7.45;;;;;;;;;;4868020;29;20050;-89
2023/07/07 05:42:53;;;;;;;13.52;7.53;;;;;;;;;;4867435;29;20041;-91
2023/07/07 05:45:39;;;;;;;8.90;6.80;;;;;;;;;;4866431;29;20045;-91
2023/07/07 05:48:24;;;;;;;12.73;7.00;;;;;;;;;;4862301;29;20480;-88
2023/07/07 05:51:15;;;;;;;9.75;6.43;;;;;;;;;;4862104;29;20057;-88
2023/07/07 05:54:00;;;;;;;10.90;6.22;;;;;;;;;;4861686;29;20045;-87
2023/07/07 05:56:50;;;;;;;9.63;6.10;;;;;;;;;;4861741;29;20433;-89
2023/07/07 05:59:43;;;;;;;8.00;5.75;;;;;;;;;;4860704;29;20046;-89
2023/07/07 06:02:28;;;;;;;8.45;6.20;;;;;;;;;;4866661;29;20443;-89
2023/07/07 06:05:20;;;;;;;8.45;6.70;;;;;;;;;;4852681;29;20049;-89
2023/07/07 06:08:12;;;;;;;10.95;6.70;;;;;;;;;;4866925;29;20042;-91
2023/07/07 06:11:00;;;;;;;9.43;6.32;;;;;;;;;;4867337;29;20049;-88
2023/07/07 06:13:46;;;;;;;9.63;6.20;;;;;;;;;;4860402;29;20053;-89
2023/07/07 06:16:32;;;;;;;8.55;5.90;;;;;;;;;;4861733;29;20054;-88
2023/07/07 06:19:17;;;;;;;8.73;6.63;;;;;;;;;;4867220;29;20480;-89
2023/07/07 06:22:03;;;;;;;9.30;7.10;;;;;;;;;;4867063;29;20053;-90
2023/07/07 06:25:34;;;;;;;10.50;6.38;;;;;;;;;;4874870;29;20049;-89
2023/07/07 06:28:33;;;;;;;9.88;6.50;;;;;;;;;;4860297;29;20053;-90
2023/07/07 06:31:24;;;;;;;17.30;7.05;;;;;;;;;;4854270;29;20404;-90
2023/07/07 06:34:09;;;;;;;8.65;6.60;;;;;;;;;;4866609;29;20045;-89
2023/07/07 06:36:56;;;;;;;10.52;7.22;;;;;;;;;;4861190;29;20488;-90
2023/07/07 06:39:41;;;;;;;13.00;7.45;;;;;;;;;;4866663;29;20053;-87
2023/07/07 06:42:27;;;;;;;10.20;7.55;;;;;;;;;;4861686;29;20061;-89
2023/07/07 06:45:23;;;;;;;11.07;7.72;;;;;;;;;;4866649;29;20037;-88
2023/07/07 06:48:10;;;;;;;10.73;7.28;;;;;;;;;;4860586;29;20054;-88
2023/07/07 06:50:57;;;;;;;9.60;7.78;;;;;;;;;;4861131;29;20041;-88
2023/07/07 06:53:42;;;;;;;12.27;7.32;;;;;;;;;;4853738;29;20037;-87
2023/07/07 06:56:37;;;;;;;10.70;7.63;;;;;;;;;;4854460;29;20431;-88
2023/07/07 06:59:31;;;;;;;15.00;8.30;;;;;;;;;;4866442;29;20403;-88
2023/07/07 07:02:16;;;;;;;11.27;7.57;;;;;;;;;;4859665;29;20051;-87
2023/07/07 07:05:02;;;;;;;8.23;6.95;;;;;;;;;;4859859;29;20037;-88
2023/07/07 07:07:50;;;;;;;12.55;7.80;;;;;;;;;;4865630;29;20046;-90
2023/07/07 07:22:37;;;;;;;22.65;9.82;;;;;;;;;;4842714;29;20045;-87
2023/07/07 07:25:23;;;;;;;9.85;7.43;;;;;;;;;;4860654;29;20045;-89
2023/07/07 07:28:58;;;;;;;;;;;;;;;;;;;;;
2023/07/07 07:32:06;;;;;;;106.38;95.20;;;;;;;;;;4862260;29;20049;-88
2023/07/07 07:34:51;;;;;;;49.40;36.20;;;;;;;;;;4852621;29;20053;-87
2023/07/07 07:37:37;;;;;;;109.15;83.18;;;;;;;;;;4853603;29;20057;-88
2023/07/07 07:45:06;;;;;;;47.88;37.28;;;;;;;;;;4867207;29;20037;-90
2023/07/07 07:47:54;;;;;;;24.70;18.35;;;;;;;;;;4860789;29;20403;-73
2023/07/07 07:50:39;;;;;;;20.45;10.30;;;;;;;;;;4862654;29;20515;-76
2023/07/07 07:53:24;;;;;;;9.80;7.60;;;;;;;;;;4864382;29;20053;-75
2023/07/07 07:56:09;;;;;;;10.93;8.68;;;;;;;;;;4870078;29;20049;-74
2023/07/07 07:58:54;;;;;;;10.55;7.35;;;;;;;;;;4863658;29;20053;-75
2023/07/07 08:01:40;;;;;;;11.05;8.00;;;;;;;;;;4864077;29;20049;-76
2023/07/07 08:04:25;;;;;;;11.35;6.85;;;;;;;;;;4863728;29;20045;-73
2023/07/07 08:07:11;;;;;;;13.52;6.72;;;;;;;;;;4856288;29;20041;-73
2023/07/07 08:09:57;;;;;;;11.27;6.55;;;;;;;;;;4869560;29;20041;-74
2023/07/07 08:12:42;;;;;;;11.13;6.30;;;;;;;;;;4864194;29;20041;-74
2023/07/07 08:15:28;;;;;;;9.82;5.70;;;;;;;;;;4863597;29;20054;-74
2023/07/07 08:18:13;;;;;;;9.38;5.78;;;;;;;;;;4863710;29;20049;-75
2023/07/07 08:20:59;;;;;;;7.13;5.80;;;;;;;;;;4870219;29;20053;-74
2023/07/07 08:23:44;;;;;;;7.78;5.72;;;;;;;;;;4863174;29;20057;-74
2023/07/07 08:26:30;;;;;;;8.30;5.63;;;;;;;;;;4863473;29;20057;-73
2023/07/07 08:29:16;;;;;;;9.77;6.43;;;;;;;;;;4863630;29;20049;-73
2023/07/07 08:32:02;;;;;;;8.27;5.85;;;;;;;;;;4863098;29;20403;-74
2023/07/07 08:34:48;;;;;;;9.45;5.82;;;;;;;;;;4862969;29;20492;-72
2023/07/07 08:37:34;;;;;;;8.43;5.75;;;;;;;;;;4863036;29;20041;-73
2023/07/07 08:40:23;;;;;;;12.32;6.50;;;;;;;;;;4863231;29;20054;-73
2023/07/07 08:43:10;;;;;;;8.93;5.68;;;;;;;;;;4863456;29;20053;-73
2023/07/07 08:46:17;;;;;;;9.48;6.43;;;;;;;;;;4863764;29;20042;-74
2023/07/07 08:49:30;;;;;;;10.27;6.55;;;;;;;;;;4862734;29;20049;-72
2023/07/07 08:52:40;;;;;;;9.85;6.50;;;;;;;;;;4862863;29;20041;-72
2023/07/07 08:55:50;;;;;;;8.00;6.10;;;;;;;;;;4862252;29;20046;-73
2023/07/07 08:58:38;;;;;;;9.90;6.80;;;;;;;;;;4854975;29;20051;-72
2023/07/07 09:01:49;;;;;;;11.18;6.75;;;;;;;;;;4867990;29;20046;-72
2023/07/07 09:04:39;;;;;;;7.68;6.05;;;;;;;;;;4844106;29;20042;-72
2023/07/07 09:08:19;;;;;;;9.13;6.72;;;;;;;;;;4843923;29;20058;-72
2023/07/07 09:11:19;;;;;;;10.82;7.07;;;;;;;;;;4837672;29;20049;-74
2023/07/07 09:14:08;;;;;;;11.35;6.53;;;;;;;;;;4847579;29;20058;-75
2023/07/07 09:17:03;;;;;;;9.18;6.75;;;;;;;;;;4843923;29;20053;-75
2023/07/07 09:19:51;;;;;;;12.23;6.40;;;;;;;;;;4843979;29;20053;-74
2023/07/07 09:22:38;;;;;;;10.73;6.90;;;;;;;;;;4843593;29;20060;-76
2023/07/07 09:25:41;;;;;;;9.85;6.38;;;;;;;;;;4843595;29;20037;-75
2023/07/07 09:28:32;;;;;;;10.32;5.68;;;;;;;;;;4843570;29;20041;-75
2023/07/07 09:31:37;;;;;;;9.30;5.68;;;;;;;;;;4844057;29;20050;-76
2023/07/07 09:34:22;;;;;;;;;;;;;;;;;;4844111;29;20042;-72
2023/07/07 09:37:17;;;;;;;8.23;6.13;;;;;;;;;;4843490;29;19917;-72
2023/07/07 09:40:08;;;;;;;8.50;6.13;;;;;;;;;;4849736;29;20046;-72
2023/07/07 09:43:01;;;;;;;10.77;6.47;;;;;;;;;;4843719;29;20049;-73
2023/07/07 09:45:56;;;;;;;13.40;6.38;;;;;;;;;;4843120;29;20034;-72
2023/07/07 09:48:47;;;;;;;;;;;;;;;;;;4843932;29;20061;-72
2023/07/07 09:51:55;;;;;;;7.57;5.78;;;;;;;;;;4849427;29;19916;-72
2023/07/07 09:54:42;;;;;;;9.55;6.07;;;;;;;;;;4843120;29;20058;-72
2023/07/07 09:57:38;;;;;;;9.13;6.20;;;;;;;;;;4843527;29;20042;-72
2023/07/07 10:00:24;;;;;;;11.45;6.53;;;;;;;;;;4843124;29;20050;-73
2023/07/07 10:03:19;;;;;;;12.30;6.13;;;;;;;;;;4843389;29;20046;-73
2023/07/07 10:06:06;;;;;;;;;;;;;;;;;;4849692;29;20045;-73
2023/07/07 10:08:52;;;;;;;9.20;5.95;;;;;;;;;;4842980;29;19916;-72
2023/07/07 10:11:39;;;;;;;9.60;5.88;;;;;;;;;;4849174;29;20042;-75
2023/07/07 10:14:28;;;;;;;13.75;6.32;;;;;;;;;;4841837;29;20404;-72
2023/07/07 10:17:14;;;;;;;10.10;6.20;;;;;;;;;;4843106;29;20053;-72
2023/07/07 10:20:02;;;;;;;13.85;5.65;;;;;;;;;;4843376;29;20397;-72
2023/07/07 10:22:47;;;;;;;10.10;6.10;;;;;;;;;;4842919;29;20046;-71
2023/07/07 10:25:32;;;;;;;8.65;6.20;;;;;;;;;;4842958;29;20049;-74
2023/07/07 10:28:20;;;;;;;10.90;6.15;;;;;;;;;;4847813;29;20057;-75
2023/07/07 10:31:05;;;;;;;14.23;6.28;;;;;;;;;;4849162;29;20389;-75
2023/07/07 10:33:56;;;;;;;8.68;5.65;;;;;;;;;;4842872;29;20054;-73
2023/07/07 10:36:42;;;;;;;8.95;5.97;;;;;;;;;;4844096;29;20042;-76
2023/07/07 10:39:29;;;;;;;9.18;6.00;;;;;;;;;;4849502;29;20050;-74
2023/07/07 10:42:15;;;;;;;11.25;6.38;;;;;;;;;;4842526;29;20488;-74
2023/07/07 10:45:05;;;;;;;10.93;5.72;;;;;;;;;;4843025;29;20041;-74
2023/07/07 10:47:51;;;;;;;11.35;5.95;;;;;;;;;;4842873;29;20049;-74
2023/07/07 10:50:54;;;;;;;9.50;6.03;;;;;;;;;;4842691;29;20053;-75
2023/07/07 10:54:06;;;;;;;11.82;6.22;;;;;;;;;;4841766;29;20045;-74
2023/07/07 10:56:58;;;;;;;10.95;6.30;;;;;;;;;;4842995;29;20054;-73
2023/07/07 10:59:57;;;;;;;10.02;6.25;;;;;;;;;;4849109;29;20049;-74
2023/07/07 11:02:49;;;;;;;10.48;6.30;;;;;;;;;;4842750;29;20408;-75
2023/07/07 11:05:42;;;;;;;9.10;6.00;;;;;;;;;;4849493;29;20034;-76
2023/07/07 11:08:49;;;;;;;8.75;6.28;;;;;;;;;;4843091;29;20057;-76
2023/07/07 11:11:51;;;;;;;10.43;6.43;;;;;;;;;;4843081;29;20053;-76
2023/07/07 11:14:52;;;;;;;11.95;6.57;;;;;;;;;;4842454;29;20404;-76
2023/07/07 11:18:07;;;;;;;11.52;6.05;;;;;;;;;;4848888;29;20392;-76
2023/07/07 11:21:14;;;;;;;9.77;6.28;;;;;;;;;;4848674;29;20046;-76
2023/07/07 11:24:13;;;;;;;10.68;7.35;;;;;;;;;;4842768;29;20054;-78
2023/07/07 11:27:07;;;;;;;14.15;7.97;;;;;;;;;;4846753;29;20432;-78
2023/07/07 11:30:09;;;;;;;13.30;7.55;;;;;;;;;;4846150;29;20049;-78
2023/07/07 11:33:29;;;;;;;14.25;6.95;;;;;;;;;;4846884;29;20515;-76
2023/07/07 11:36:20;;;;;;;12.82;7.53;;;;;;;;;;4846616;29;20050;-76
2023/07/07 11:39:30;;;;;;;8.40;6.43;;;;;;;;;;4853379;29;20404;-78
2023/07/07 11:42:39;;;;;;;8.40;6.13;;;;;;;;;;4847685;29;20042;-77
2023/07/07 11:45:24;;;;;;;9.82;5.72;;;;;;;;;;4832733;29;20090;-78
2023/07/07 11:48:15;;;;;;;9.38;5.35;;;;;;;;;;4851768;29;20058;-78
2023/07/07 11:51:11;;;;;;;8.43;5.80;;;;;;;;;;4851428;29;20046;-78
2023/07/07 11:54:30;;;;;;;12.55;6.82;;;;;;;;;;4850264;29;20046;-77
2023/07/07 11:57:18;;;;;;;11.25;6.03;;;;;;;;;;4851782;29;20054;-75
2023/07/07 12:00:47;;;;;;;10.93;6.82;;;;;;;;;;4851389;29;20054;-74
2023/07/07 12:03:57;;;;;;;10.18;6.82;;;;;;;;;;4843678;29;20046;-78
2023/07/07 12:06:47;;;;;;;9.65;6.70;;;;;;;;;;4850814;29;20456;-77
2023/07/07 12:09:48;;;;;;;11.73;6.60;;;;;;;;;;4845178;29;20396;-76
2023/07/07 12:12:38;;;;;;;8.82;6.05;;;;;;;;;;4845201;29;20077;-75
2023/07/07 12:15:38;;;;;;;10.32;6.60;;;;;;;;;;4845292;29;20480;-76
2023/07/07 12:18:32;;;;;;;10.02;6.70;;;;;;;;;;4844523;29;20046;-76
2023/07/07 12:21:23;;;;;;;9.98;6.40;;;;;;;;;;4845089;29;20054;-75
2023/07/07 12:24:16;;;;;;;10.63;7.20;;;;;;;;;;4845266;29;20141;-77
2023/07/07 12:27:11;;;;;;;10.77;6.63;;;;;;;;;;4850898;29;20058;-76
2023/07/07 12:29:58;;;;;;;10.70;7.05;;;;;;;;;;4850843;29;20050;-76
2023/07/07 12:32:44;;;;;;;10.48;6.53;;;;;;;;;;4844882;29;20053;-76
2023/07/07 12:35:43;;;;;;;8.77;6.72;;;;;;;;;;4844781;29;20038;-78
2023/07/07 12:38:33;;;;;;;9.80;7.13;;;;;;;;;;4852261;29;20050;-78
2023/07/07 12:41:24;;;;;;;10.40;7.20;;;;;;;;;;4852119;29;20058;-78
2023/07/07 12:44:11;;;;;;;12.85;7.22;;;;;;;;;;4845057;29;20054;-77
2023/07/07 12:46:58;;;;;;;11.43;6.72;;;;;;;;;;4850890;29;20041;-77
2023/07/07 12:49:52;;;;;;;12.10;7.32;;;;;;;;;;4851414;29;20050;-80
2023/07/07 12:53:23;;;;;;;11.70;8.15;;;;;;;;;;4846088;29;20049;-83
2023/07/07 12:56:21;;;;;;;12.45;7.32;;;;;;;;;;4850035;29;20050;-84
2023/07/07 12:59:37;;;;;;;8.30;6.25;;;;;;;;;;4850445;29;20042;-78
2023/07/07 13:02:25;;;;;;;11.00;6.50;;;;;;;;;;4845281;29;20042;-78
2023/07/07 13:05:22;;;;;;;10.65;6.07;;;;;;;;;;4844581;29;20046;-77
2023/07/07 13:08:07;;;;;;;11.57;6.15;;;;;;;;;;4843347;29;20042;-78
2023/07/07 13:11:02;;;;;;;9.77;5.90;;;;;;;;;;4850018;29;20050;-77
2023/07/07 13:13:47;;;;;;;9.30;5.35;;;;;;;;;;4848462;29;20054;-76
2023/07/07 13:16:35;;;;;;;7.65;5.43;;;;;;;;;;4849884;29;20046;-77
2023/07/07 13:19:21;;;;;;;6.93;4.68;;;;;;;;;;4843806;29;20050;-79
2023/07/07 13:22:14;;;;;;;7.03;4.55;;;;;;;;;;4850297;29;20050;-77
2023/07/07 13:25:05;;;;;;;6.80;4.65;;;;;;;;;;4843473;29;20046;-79
2023/07/07 13:27:52;;;;;;;6.57;5.38;;;;;;;;;;4843032;29;20042;-77
2023/07/07 13:30:43;;;;;;;8.45;4.88;;;;;;;;;;4844134;29;20057;-79
2023/07/07 13:33:30;;;;;;;6.80;5.00;;;;;;;;;;4850680;29;20049;-77
2023/07/07 13:36:14;;;;;;;10.57;5.32;;;;;;;;;;4843853;29;20045;-79
2023/07/07 13:39:01;;;;;;;9.15;5.35;;;;;;;;;;4842793;29;20492;-78
2023/07/07 13:41:47;;;;;;;7.43;4.80;;;;;;;;;;4850080;29;20046;-78
2023/07/07 13:44:33;;;;;;;8.45;5.25;;;;;;;;;;4849395;29;20049;-77
2023/07/07 13:47:22;;;;;;;7.10;4.93;;;;;;;;;;4843487;29;20054;-78
2023/07/07 13:50:13;;;;;;;8.55;5.22;;;;;;;;;;4829880;29;20049;-79
2023/07/07 13:53:05;;;;;;;8.60;4.90;;;;;;;;;;4842679;29;20054;-78
2023/07/07 13:55:52;;;;;;;6.57;5.13;;;;;;;;;;4848458;29;20054;-76
2023/07/07 13:58:46;;;;;;;8.13;5.40;;;;;;;;;;4849676;29;20050;-78
2023/07/07 14:01:34;;;;;;;;;;;;;;;;;;4843786;29;20042;-77
2023/07/07 14:04:24;;;;;;;6.35;4.45;;;;;;;;;;4843345;29;19916;-76
2023/07/07 14:07:19;;;;;;;10.15;5.18;;;;;;;;;;4843443;29;20050;-78
2023/07/07 14:10:33;;;;;;;7.55;5.18;;;;;;;;;;4843116;29;20057;-76
2023/07/07 14:13:32;;;;;;;8.52;5.38;;;;;;;;;;4842634;29;20050;-79
2023/07/07 14:16:34;;;;;;;6.88;5.38;;;;;;;;;;4848991;29;20046;-77
2023/07/07 14:19:32;;;;;;;11.35;6.07;;;;;;;;;;4849277;29;20042;-76
2023/07/07 14:22:18;;;;;;;9.30;6.20;;;;;;;;;;4842789;29;20050;-76
2023/07/07 14:25:05;;;;;;;8.50;6.35;;;;;;;;;;4848993;29;20041;-77
2023/07/07 14:27:57;;;;;;;8.70;5.10;;;;;;;;;;4848704;29;20049;-76
2023/07/07 14:30:56;;;;;;;7.63;4.70;;;;;;;;;;4847834;29;20060;-76
2023/07/07 14:33:53;;;;;;;5.25;3.83;;;;;;;;;;4848573;29;20053;-77
2023/07/07 14:36:43;;;;;;;7.40;3.65;;;;;;;;;;4847673;29;20046;-76
2023/07/07 14:39:30;;;;;;;4.40;3.25;;;;;;;;;;4848814;29;20042;-79
2023/07/07 14:42:23;;;;;;;4.80;3.42;;;;;;;;;;4842903;29;20042;-79
2023/07/07 14:45:26;;;;;;;4.65;3.38;;;;;;;;;;4848919;29;20046;-78
2023/07/07 14:48:48;;;;;;;6.00;3.45;;;;;;;;;;4841796;29;20440;-78
2023/07/07 14:51:49;;;;;;;11.40;3.60;;;;;;;;;;4848888;29;20053;-77
2023/07/07 14:54:34;;;;;;;7.40;3.60;;;;;;;;;;4848837;29;20496;-78
2023/07/07 14:57:22;;;;;;;4.45;3.30;;;;;;;;;;4848974;29;20093;-77
2023/07/07 15:00:30;;;;;;;6.60;3.97;;;;;;;;;;4844451;29;20403;-77
2023/07/07 15:03:25;;;;;;;7.38;3.78;;;;;;;;;;4846297;29;20050;-77
2023/07/07 15:06:24;;;;;;;6.25;3.78;;;;;;;;;;4846456;29;20038;-78
2023/07/07 15:09:11;;;;;;;8.90;4.40;;;;;;;;;;4848023;29;20049;-78
2023/07/07 15:11:57;;;;;;;9.07;4.13;;;;;;;;;;4846901;29;20420;-79
2023/07/07 15:14:42;;;;;;;7.60;4.25;;;;;;;;;;4835765;29;20054;-77
2023/07/07 15:17:27;;;;;;;8.35;4.55;;;;;;;;;;4853401;29;20049;-74
2023/07/07 15:20:18;;;;;;;10.80;6.10;;;;;;;;;;4852238;29;20053;-73
2023/07/07 15:23:04;;;;;;;6.78;4.00;;;;;;;;;;4846434;29;20045;-79
2023/07/07 15:25:50;;;;;;;5.68;3.70;;;;;;;;;;4847634;29;20045;-79
2023/07/07 15:28:36;;;;;;;6.53;3.78;;;;;;;;;;4852696;29;20046;-79
2023/07/07 15:31:23;;;;;;;5.85;4.00;;;;;;;;;;4846250;29;20054;-77
2023/07/07 15:34:08;;;;;;;7.82;3.80;;;;;;;;;;4847436;29;20053;-78
2023/07/07 15:36:54;;;;;;;5.47;3.60;;;;;;;;;;4845335;29;20050;-78
2023/07/07 15:39:39;;;;;;;3.90;3.20;;;;;;;;;;4846163;29;20042;-79
2023/07/07 15:42:25;;;;;;;5.45;3.70;;;;;;;;;;4846940;29;20054;-79
2023/07/07 15:45:12;;;;;;;6.32;3.80;;;;;;;;;;4852601;29;20045;-76
2023/07/07 15:48:11;;;;;;;5.22;3.35;;;;;;;;;;4853628;29;20045;-78
2023/07/07 15:50:57;;;;;;;8.45;3.85;;;;;;;;;;4852957;29;20045;-76
2023/07/07 15:53:43;;;;;;;5.25;3.60;;;;;;;;;;4845699;29;20053;-76
2023/07/07 15:56:32;;;;;;;7.10;3.80;;;;;;;;;;4850328;29;20058;-76
2023/07/07 15:59:19;;;;;;;5.85;3.85;;;;;;;;;;4849599;29;20049;-78
2023/07/07 16:02:18;;;;;;;5.15;3.15;;;;;;;;;;4844625;29;20058;-76
2023/07/07 16:05:06;;;;;;;7.40;3.42;;;;;;;;;;4850746;29;20054;-78
2023/07/07 16:07:52;;;;;;;7.50;4.00;;;;;;;;;;4850790;29;20049;-78
2023/07/07 16:10:39;;;;;;;6.85;4.35;;;;;;;;;;4846161;29;20400;-78
2023/07/07 16:13:24;;;;;;;5.30;3.03;;;;;;;;;;4850525;29;20049;-77
2023/07/07 16:16:12;;;;;;;5.00;3.60;;;;;;;;;;4851282;29;20408;-78
2023/07/07 16:18:57;;;;;;;5.55;3.90;;;;;;;;;;4851279;29;20054;-76
2023/07/07 16:21:43;;;;;;;10.48;6.45;;;;;;;;;;4851394;29;20483;-76
2023/07/07 16:24:28;;;;;;;7.80;3.78;;;;;;;;;;4850997;29;20046;-76
2023/07/07 16:27:17;;;;;;;8.77;3.42;;;;;;;;;;4851305;29;20476;-78
2023/07/07 16:30:36;;;;;;;5.60;3.30;;;;;;;;;;4851628;29;20488;-78
2023/07/07 16:33:23;;;;;;;8.10;4.10;;;;;;;;;;4837434;29;20050;-75
2023/07/07 16:36:13;;;;;;;6.05;3.35;;;;;;;;;;4844555;29;20049;-77
2023/07/07 16:38:58;;;;;;;5.88;3.58;;;;;;;;;;4844862;29;20496;-77
2023/07/07 16:41:43;;;;;;;15.27;4.93;;;;;;;;;;4843781;29;20492;-76
2023/07/07 16:44:28;;;;;;;5.55;4.05;;;;;;;;;;4845146;29;20046;-77
2023/07/07 16:47:14;;;;;;;8.38;4.30;;;;;;;;;;4850923;29;20504;-77
2023/07/07 16:50:27;;;;;;;11.25;4.13;;;;;;;;;;4844494;29;20050;-77
2023/07/07 16:53:14;;;;;;;8.45;4.53;;;;;;;;;;4844689;29;20050;-77
2023/07/07 16:55:59;;;;;;;8.63;5.70;;;;;;;;;;4850410;29;20045;-77
2023/07/07 16:58:44;;;;;;;9.32;3.97;;;;;;;;;;4851170;29;20041;-77
2023/07/07 17:01:31;;;;;;;5.25;3.90;;;;;;;;;;4849471;29;20045;-76
2023/07/07 17:04:17;;;;;;;7.32;4.80;;;;;;;;;;4844245;29;20050;-77
2023/07/07 17:07:02;;;;;;;6.03;3.75;;;;;;;;;;4844167;29;20042;-76
2023/07/07 17:09:49;;;;;;;7.88;4.18;;;;;;;;;;4850385;29;20050;-77
2023/07/07 17:12:34;;;;;;;6.05;3.88;;;;;;;;;;4843937;29;20054;-77
2023/07/07 17:15:20;;;;;;;7.50;3.95;;;;;;;;;;4828255;29;20061;-77
2023/07/07 17:18:10;;;;;;;5.45;3.75;;;;;;;;;;4850238;29;20050;-74
2023/07/07 17:20:55;;;;;;;8.68;3.72;;;;;;;;;;4843702;29;20050;-74
2023/07/07 17:23:41;;;;;;;8.07;3.83;;;;;;;;;;4849759;29;20050;-74
2023/07/07 17:26:28;;;;;;;5.30;3.60;;;;;;;;;;4849826;29;20042;-75
2023/07/07 17:29:15;;;;;;;6.72;4.20;;;;;;;;;;4843773;29;20372;-76
2023/07/07 17:32:00;;;;;;;7.05;3.85;;;;;;;;;;4843709;29;20050;-77
2023/07/07 17:34:46;;;;;;;9.65;4.20;;;;;;;;;;4849583;29;20049;-76
2023/07/07 17:37:31;;;;;;;5.85;4.10;;;;;;;;;;4849358;29;20492;-75
2023/07/07 17:40:39;;;;;;;7.18;4.60;;;;;;;;;;4849580;29;20484;-75
2023/07/07 17:43:24;;;;;;;7.88;4.00;;;;;;;;;;4843477;29;20392;-77
2023/07/07 17:46:32;;;;;;;7.50;4.05;;;;;;;;;;4843515;29;20484;-77
2023/07/07 17:49:20;;;;;;;8.70;4.40;;;;;;;;;;4844337;29;20042;-81
2023/07/07 17:52:07;;;;;;;8.77;4.45;;;;;;;;;;4844360;29;20453;-82
2023/07/07 17:55:11;;;;;;;10.32;4.70;;;;;;;;;;4843751;29;20046;-80
2023/07/07 17:57:56;;;;;;;8.75;5.25;;;;;;;;;;4848002;29;20437;-76
2023/07/07 18:00:45;;;;;;;9.57;4.55;;;;;;;;;;4842481;29;20058;-72
2023/07/07 18:03:31;;;;;;;7.53;4.55;;;;;;;;;;4850267;29;20054;-71
2023/07/07 18:06:22;;;;;;;7.43;4.22;;;;;;;;;;4843273;29;20045;-72
2023/07/07 18:09:12;;;;;;;9.07;4.10;;;;;;;;;;4843572;29;20054;-73
2023/07/07 18:11:57;;;;;;;9.93;4.88;;;;;;;;;;4844959;29;20037;-76
2023/07/07 18:14:43;;;;;;;15.20;5.55;;;;;;;;;;4846580;29;20050;-76
2023/07/07 18:17:28;;;;;;;10.82;5.05;;;;;;;;;;4843713;29;20405;-75
2023/07/07 18:20:32;;;;;;;9.40;5.30;;;;;;;;;;4844145;29;20050;-76
2023/07/07 18:23:18;;;;;;;7.28;4.90;;;;;;;;;;4849837;29;20050;-76
2023/07/07 18:26:03;;;;;;;13.95;4.78;;;;;;;;;;4843589;29;20042;-75
2023/07/07 18:29:11;;;;;;;11.88;6.13;;;;;;;;;;4843540;29;20038;-75
2023/07/07 18:31:56;;;;;;;9.93;5.00;;;;;;;;;;4849726;29;20488;-76
2023/07/07 18:34:43;;;;;;;15.55;5.35;;;;;;;;;;4847742;29;20045;-76
2023/07/07 18:37:28;;;;;;;13.10;5.78;;;;;;;;;;4849885;29;20054;-74
2023/07/07 18:40:20;;;;;;;8.10;5.03;;;;;;;;;;4849803;29;20050;-74
2023/07/07 18:43:05;;;;;;;16.08;6.05;;;;;;;;;;4843113;29;20392;-73
2023/07/07 18:45:51;;;;;;;8.45;5.30;;;;;;;;;;4848786;29;20046;-73
2023/07/07 18:48:38;;;;;;;14.32;5.50;;;;;;;;;;4842632;29;20054;-84
2023/07/07 18:51:24;;;;;;;9.05;5.20;;;;;;;;;;4843203;29;20071;-84
2023/07/07 18:54:10;;;;;;;11.48;5.78;;;;;;;;;;4843574;29;20042;-85
2023/07/07 18:56:56;;;;;;;11.85;5.82;;;;;;;;;;4843033;29;20042;-85
2023/07/07 18:59:42;;;;;;;17.20;8.93;;;;;;;;;;4835908;29;20058;-85
2023/07/07 19:02:27;;;;;;;24.15;12.60;;;;;;;;;;4844077;29;20054;-84
2023/07/07 19:05:12;;;;;;;23.67;12.50;;;;;;;;;;4842976;29;20053;-81
2023/07/07 19:07:58;;;;;;;20.35;11.73;;;;;;;;;;4844417;29;20034;-81
2023/07/07 19:10:47;;;;;;;20.25;11.43;;;;;;;;;;4844101;29;20400;-82
2023/07/07 19:13:32;;;;;;;21.92;13.75;;;;;;;;;;4843977;29;20061;-82